Aérodrome :
LOGIN :

S'inscrire | Disclaimer

   EN    FR    IT 

 










Légende :    VFR   VFR Marginal   IFR   IFR Intensif   IFR Très Intensif
Visi : 
Plafond : 
>= 8 km
>= 3000ft
5 à 8 km
1000 à 3000 ft
1500m à 5 km
500 à 1000 ft
800 à 1500m
200 à 500 ft
< 800m
< 200 ft
Symboles :   Orages  Brouillard  Fortes neiges  Fortes précipitations  Vent > 20 kt
SIGMETs :   Divers  Orages  Givrage  Turbulence  Onde Orograph.  Cendres Volcan.






- Altitude de l'aérodrome : 1234 ft
- Code IATA : LUX


ELLX - Luxembourg Findel

DERNIER METAR :
  • 250820Z 06003KT 360V100 0150 R24/0150N FZFG VV001 M02/M02 Q1032 NOSIG

METARs EXPIRÉS :
  • 250750Z 04003KT 010V090 0100 R24/0175N FZFG VV001 M03/M03 Q1032 NOSIG
  • 250720Z 06003KT 020V100 0100 R24/0250N FZFG VV001 M03/M03 Q1032 NOSIG
  • 250650Z 04004KT 020V090 0100 R24/0250N FZFG VV001 M02/M02 Q1032 NOSIG
  • 250620Z 06005KT 0100 R24/0250N FZFG VV001 M02/M02 Q1031 NOSIG
  • 250550Z 04003KT 350V130 0100 R24/0275N FZFG VV001 M02/M02 Q1032 NOSIG

TAF TAF ELLX
Valide du 25 à 06h jusqu'au 26 à 12h UTC


250500Z 2506/2612 04005KT 0200 FZFG VV001
BECMG 2509/2511 7000 FEW008
BECMG 2519/2522 0200 FZFG BKN002
BECMG 2610/2612 5000 BR BKN005
ATIS : +352 4798 27300
Météo : +352 4798 27010 / 27050



MET'MAP, la Météo Aéronautique d'un coup d'oeil ! - Copyright ORBIFLY Décembre 2007 - Disclaimer

ORBIFLY MET'MAP TEAM :

Programmation & Développement : Alexandra Zaïnal
Sur une idée originale de : Baudouin d'Aumeries
Soutien technique & logistique : Manuel Goepfert
Assistance : Marc-Olivier Méhu

Contact : metmap@orbifly.com




SOURCES & CREDITS :

   NOAA